createdAt,value
2016-05-13T00:00:21.167Z,0
2016-05-13T00:01:21.155Z,0
2016-05-13T00:02:21.344Z,0
2016-05-13T00:03:21.457Z,0
2016-05-13T00:04:21.397Z,0
2016-05-13T00:05:21.556Z,0
2016-05-13T00:06:21.355Z,0
2016-05-13T00:07:21.327Z,0
2016-05-13T00:08:21.627Z,0
2016-05-13T00:09:21.363Z,0
2016-05-13T00:10:21.538Z,0
2016-05-13T00:11:21.432Z,0
2016-05-13T00:12:21.607Z,0
2016-05-13T00:13:21.624Z,0
2016-05-13T00:14:21.502Z,0
2016-05-13T00:15:21.520Z,0
2016-05-13T00:16:21.554Z,0
2016-05-13T00:17:21.603Z,0
2016-05-13T00:18:21.793Z,0
2016-05-13T00:19:21.782Z,0
2016-05-13T00:20:21.643Z,0
2016-05-13T00:21:21.677Z,0
2016-05-13T00:22:21.711Z,0
2016-05-13T00:23:21.886Z,0
2016-05-13T00:24:21.764Z,0
2016-05-13T00:25:21.953Z,0
2016-05-13T00:26:21.800Z,0
2016-05-13T00:27:21.834Z,0
2016-05-13T00:28:22.008Z,0
2016-05-13T00:29:22.027Z,0
2016-05-13T00:30:22.092Z,0
2016-05-13T00:31:22.094Z,0
2016-05-13T00:32:22.254Z,0
2016-05-13T00:33:22.006Z,0
2016-05-13T00:34:22.150Z,0
2016-05-13T00:35:22.183Z,0
2016-05-13T00:36:22.217Z,0
2016-05-13T00:37:22.235Z,0
2016-05-13T00:38:22.129Z,0
2016-05-13T00:39:22.147Z,0
2016-05-13T00:40:21.994Z,0
2016-05-13T00:41:22.341Z,0
2016-05-13T00:42:22.374Z,0
2016-05-13T00:43:22.393Z,0
2016-05-13T00:44:22.426Z,0
2016-05-13T00:45:22.429Z,0
2016-05-13T00:46:22.463Z,0
2016-05-13T00:47:22.357Z,0
2016-05-13T00:48:22.531Z,0
2016-05-13T00:49:22.534Z,0
2016-05-13T00:50:22.426Z,0
2016-05-13T00:51:22.586Z,0
2016-05-13T00:52:22.620Z,0
2016-05-13T00:53:22.341Z,0
2016-05-13T00:54:22.360Z,0
2016-05-13T00:55:22.690Z,0
2016-05-13T00:56:22.568Z,0
2016-05-13T00:57:22.743Z,0
2016-05-13T00:58:22.792Z,0
2016-05-13T00:59:22.795Z,0
2016-05-13T01:00:22.656Z,0
2016-05-13T01:01:22.702Z,0
2016-05-13T01:02:22.638Z,0
2016-05-13T01:03:22.842Z,0
2016-05-13T01:04:23.090Z,0
2016-05-13T01:05:23.137Z,0
2016-05-13T01:06:23.222Z,0
2016-05-13T01:07:23.241Z,0
2016-05-13T01:08:23.135Z,0
2016-05-13T01:09:23.324Z,0
2016-05-13T01:10:23.374Z,0
2016-05-13T01:11:23.405Z,0
2016-05-13T01:12:23.429Z,0
2016-05-13T01:13:23.453Z,0
2016-05-13T01:14:23.337Z,0
2016-05-13T01:15:23.532Z,0
2016-05-13T01:16:23.555Z,0
2016-05-13T01:17:24.043Z,0
2016-05-13T01:18:23.611Z,0
2016-05-13T01:19:23.630Z,0
2016-05-13T01:20:23.510Z,0
2016-05-13T01:21:23.686Z,0
2016-05-13T01:22:23.721Z,0
2016-05-13T01:23:23.740Z,0
2016-05-13T01:24:23.760Z,0
2016-05-13T01:25:23.795Z,0
2016-05-13T01:26:23.828Z,0
2016-05-13T01:27:23.848Z,0
2016-05-13T01:28:23.710Z,0
2016-05-13T01:29:23.743Z,0
2016-05-13T01:30:23.935Z,0
2016-05-13T01:31:23.953Z,0
2016-05-13T01:32:24.299Z,0
2016-05-13T01:33:23.990Z,0
2016-05-13T01:34:24.023Z,0
2016-05-13T01:35:24.042Z,0
2016-05-13T01:36:24.077Z,0
2016-05-13T01:37:24.110Z,0
2016-05-13T01:38:24.129Z,0
2016-05-13T01:39:24.006Z,0
2016-05-13T01:40:24.181Z,0
2016-05-13T01:41:24.199Z,0
2016-05-13T01:42:24.232Z,0
2016-05-13T01:43:24.251Z,0
2016-05-13T01:44:24.270Z,0
2016-05-13T01:45:24.319Z,0
2016-05-13T01:46:24.337Z,0
2016-05-13T01:47:24.871Z,0
2016-05-13T01:48:24.234Z,0
2016-05-13T01:49:24.252Z,0
2016-05-13T01:50:24.286Z,0
2016-05-13T01:51:24.461Z,0
2016-05-13T01:52:24.478Z,0
2016-05-13T01:53:24.512Z,0
2016-05-13T01:54:24.530Z,0
2016-05-13T01:55:24.549Z,0
2016-05-13T01:56:24.583Z,0
2016-05-13T01:57:24.602Z,0
2016-05-13T01:58:24.636Z,0
2016-05-13T01:59:24.497Z,0
2016-05-13T02:00:24.672Z,0
2016-05-13T02:01:24.721Z,0
2016-05-13T02:02:24.818Z,0
2016-05-13T02:03:24.602Z,0
2016-05-13T02:04:24.636Z,0
2016-05-13T02:05:24.638Z,0
2016-05-13T02:06:24.844Z,0
2016-05-13T02:07:24.862Z,0
2016-05-13T02:08:24.882Z,0
2016-05-13T02:09:24.899Z,0
2016-05-13T02:10:24.933Z,0
2016-05-13T02:11:24.952Z,0
2016-05-13T02:12:24.985Z,0
2016-05-13T02:13:24.847Z,0
2016-05-13T02:14:25.037Z,0
2016-05-13T02:15:24.901Z,0
2016-05-13T02:16:24.934Z,0
2016-05-13T02:17:25.406Z,0
2016-05-13T02:18:25.142Z,0
2016-05-13T02:19:25.160Z,0
2016-05-13T02:20:25.194Z,0
2016-05-13T02:21:25.212Z,0
2016-05-13T02:22:25.247Z,0
2016-05-13T02:23:25.281Z,0
2016-05-13T02:24:25.314Z,0
2016-05-13T02:25:25.005Z,0
2016-05-13T02:26:25.023Z,0
2016-05-13T02:27:25.353Z,0
2016-05-13T02:28:24.919Z,0
2016-05-13T02:29:25.406Z,0
2016-05-13T02:30:25.441Z,0
2016-05-13T02:31:25.474Z,0
2016-05-13T02:32:25.492Z,0
2016-05-13T02:33:25.510Z,0
2016-05-13T02:34:25.529Z,0
2016-05-13T02:35:25.578Z,0
2016-05-13T02:36:25.284Z,0
2016-05-13T02:37:25.616Z,0
2016-05-13T02:38:25.477Z,0
2016-05-13T02:39:25.668Z,0
2016-05-13T02:40:25.545Z,0
2016-05-13T02:41:25.548Z,0
2016-05-13T02:42:25.754Z,0
2016-05-13T02:43:25.771Z,0
2016-05-13T02:44:25.634Z,0
2016-05-13T02:45:25.809Z,0
2016-05-13T02:46:25.670Z,0
2016-05-13T02:47:26.064Z,0
2016-05-13T02:48:25.895Z,0
2016-05-13T02:49:25.929Z,0
2016-05-13T02:50:25.791Z,0
2016-05-13T02:51:25.809Z,0
2016-05-13T02:52:25.999Z,0
2016-05-13T02:53:26.017Z,0
2016-05-13T02:54:25.895Z,0
2016-05-13T02:55:26.053Z,0
2016-05-13T02:56:26.089Z,0
2016-05-13T02:57:25.966Z,0
2016-05-13T02:58:26.141Z,0
2016-05-13T02:59:26.174Z,0
2016-05-13T03:00:26.192Z,0
2016-05-13T03:01:26.211Z,0
2016-05-13T03:02:26.088Z,0
2016-05-13T03:03:26.263Z,0
2016-05-13T03:04:26.125Z,0
2016-05-13T03:05:26.160Z,0
2016-05-13T03:06:26.193Z,0
2016-05-13T03:07:26.196Z,0
2016-05-13T03:08:26.386Z,0
2016-05-13T03:09:26.264Z,0
2016-05-13T03:10:26.438Z,0
2016-05-13T03:11:26.472Z,0
2016-05-13T03:12:26.490Z,0
2016-05-13T03:13:26.509Z,0
2016-05-13T03:14:26.543Z,0
2016-05-13T03:15:26.561Z,0
2016-05-13T03:16:26.579Z,0
2016-05-13T03:17:26.629Z,0
2016-05-13T03:18:26.350Z,0
2016-05-13T03:19:26.665Z,0
2016-05-13T03:20:26.683Z,0
2016-05-13T03:21:26.717Z,0
2016-05-13T03:22:26.737Z,0
2016-05-13T03:23:26.770Z,0
2016-05-13T03:24:26.632Z,0
2016-05-13T03:25:26.494Z,4
2016-05-13T03:26:26.841Z,4
2016-05-13T03:27:26.859Z,0
2016-05-13T03:28:26.736Z,4
2016-05-13T03:29:26.911Z,0
2016-05-13T03:30:26.633Z,4
2016-05-13T03:31:26.963Z,4
2016-05-13T03:32:26.966Z,8
2016-05-13T03:33:26.860Z,8
2016-05-13T03:34:26.878Z,8
2016-05-13T03:35:26.912Z,12
2016-05-13T03:36:27.102Z,16
2016-05-13T03:37:27.121Z,16
2016-05-13T03:38:27.138Z,16
2016-05-13T03:39:27.157Z,24
2016-05-13T03:40:27.190Z,24
2016-05-13T03:41:27.225Z,24
2016-05-13T03:42:27.243Z,28
2016-05-13T03:43:27.262Z,32
2016-05-13T03:44:27.280Z,36
2016-05-13T03:45:27.313Z,40
2016-05-13T03:46:27.332Z,44
2016-05-13T03:47:27.069Z,48
2016-05-13T03:48:27.228Z,52
2016-05-13T03:49:27.418Z,56
2016-05-13T03:50:27.437Z,60
2016-05-13T03:51:27.314Z,64
2016-05-13T03:52:27.473Z,68
2016-05-13T03:53:27.351Z,76
2016-05-13T03:54:27.542Z,88
2016-05-13T03:55:27.559Z,96
2016-05-13T03:56:27.578Z,104
2016-05-13T03:57:27.595Z,116
2016-05-13T03:58:27.645Z,128
2016-05-13T03:59:27.523Z,136
2016-05-13T04:00:27.525Z,152
2016-05-13T04:01:27.545Z,160
2016-05-13T04:02:27.594Z,172
2016-05-13T04:03:27.597Z,180
2016-05-13T04:04:27.786Z,196
2016-05-13T04:05:27.664Z,212
2016-05-13T04:06:27.838Z,228
2016-05-13T04:07:27.873Z,244
2016-05-13T04:08:27.891Z,256
2016-05-13T04:09:27.910Z,268
2016-05-13T04:10:27.927Z,280
2016-05-13T04:11:27.977Z,296
2016-05-13T04:12:27.996Z,316
2016-05-13T04:13:28.014Z,328
2016-05-13T04:14:28.032Z,340
2016-05-13T04:15:28.066Z,348
2016-05-13T04:16:28.084Z,352
2016-05-13T04:17:28.118Z,356
2016-05-13T04:18:28.137Z,356
2016-05-13T04:19:28.155Z,356
2016-05-13T04:20:28.190Z,356
2016-05-13T04:21:28.082Z,352
2016-05-13T04:22:28.226Z,352
2016-05-13T04:23:28.259Z,352
2016-05-13T04:24:28.137Z,352
2016-05-13T04:25:28.311Z,352
2016-05-13T04:26:28.331Z,364
2016-05-13T04:27:28.192Z,372
2016-05-13T04:28:28.383Z,380
2016-05-13T04:29:28.261Z,388
2016-05-13T04:30:28.450Z,392
2016-05-13T04:31:28.312Z,376
2016-05-13T04:32:28.189Z,360
2016-05-13T04:33:28.489Z,360
2016-05-13T04:34:28.539Z,372
2016-05-13T04:35:28.558Z,400
2016-05-13T04:36:28.575Z,436
2016-05-13T04:37:28.438Z,488
2016-05-13T04:38:28.644Z,540
2016-05-13T04:39:28.663Z,600
2016-05-13T04:40:28.680Z,668
2016-05-13T04:41:28.699Z,740
2016-05-13T04:42:28.716Z,832
2016-05-13T04:43:28.751Z,960
2016-05-13T04:44:28.784Z,1112
2016-05-13T04:45:28.647Z,1296
2016-05-13T04:46:28.822Z,1512
2016-05-13T04:47:29.371Z,1736
2016-05-13T04:48:28.889Z,1916
2016-05-13T04:49:28.892Z,2048
2016-05-13T04:50:28.925Z,2140
2016-05-13T04:51:28.959Z,2184
2016-05-13T04:52:28.994Z,2196
2016-05-13T04:53:28.996Z,2204
2016-05-13T04:54:29.030Z,2204
2016-05-13T04:55:28.892Z,2204
2016-05-13T04:56:29.083Z,2220
2016-05-13T04:57:29.101Z,2256
2016-05-13T04:58:29.135Z,2276
2016-05-13T04:59:29.012Z,2268
2016-05-13T05:00:29.031Z,2244
2016-05-13T05:01:28.892Z,2208
2016-05-13T05:02:29.364Z,2192
2016-05-13T05:03:29.102Z,2180
2016-05-13T05:04:29.276Z,2184
2016-05-13T05:05:29.295Z,2184
2016-05-13T05:06:29.328Z,2180
2016-05-13T05:07:29.378Z,2156
2016-05-13T05:08:29.380Z,2120
2016-05-13T05:09:29.399Z,2140
2016-05-13T05:10:29.432Z,2144
2016-05-13T05:11:29.452Z,2132
2016-05-13T05:12:29.485Z,2104
2016-05-13T05:13:29.504Z,2096
2016-05-13T05:14:29.538Z,2120
2016-05-13T05:15:29.555Z,2176
2016-05-13T05:16:29.590Z,2252
2016-05-13T05:17:29.779Z,2368
2016-05-13T05:18:29.626Z,2508
2016-05-13T05:19:29.348Z,2684
2016-05-13T05:20:29.679Z,2936
2016-05-13T05:21:29.712Z,3256
2016-05-13T05:22:29.574Z,3616
2016-05-13T05:23:29.764Z,3984
2016-05-13T05:24:29.784Z,4288
2016-05-13T05:25:29.645Z,4536
2016-05-13T05:26:29.679Z,4664
2016-05-13T05:27:29.853Z,4684
2016-05-13T05:28:29.731Z,4680
2016-05-13T05:29:29.905Z,4680
2016-05-13T05:30:29.939Z,4724
2016-05-13T05:31:29.974Z,6936
2016-05-13T05:32:29.992Z,10516
2016-05-13T05:33:30.026Z,12412
2016-05-13T05:34:29.888Z,12728
2016-05-13T05:35:30.063Z,13096
2016-05-13T05:36:29.925Z,13536
2016-05-13T05:37:30.114Z,13776
2016-05-13T05:38:30.133Z,13956
2016-05-13T05:39:30.011Z,14040
2016-05-13T05:40:30.186Z,13928
2016-05-13T05:41:30.250Z,13972
2016-05-13T05:42:30.238Z,14304
2016-05-13T05:43:30.115Z,14624
2016-05-13T05:44:30.149Z,14752
2016-05-13T05:45:30.323Z,14848
2016-05-13T05:46:30.201Z,14752
2016-05-13T05:47:30.330Z,14720
2016-05-13T05:48:30.410Z,14656
2016-05-13T05:49:30.257Z,14488
2016-05-13T05:50:30.462Z,14784
2016-05-13T05:51:30.324Z,14656
2016-05-13T05:52:30.359Z,14624
2016-05-13T05:53:30.407Z,14976
2016-05-13T05:54:30.410Z,15776
2016-05-13T05:55:30.600Z,16032
2016-05-13T05:56:30.651Z,16384
2016-05-13T05:57:30.497Z,16768
2016-05-13T05:58:30.671Z,16448
2016-05-13T05:59:30.721Z,16544
2016-05-13T06:00:30.739Z,16576
2016-05-13T06:01:30.758Z,16640
2016-05-13T06:02:30.806Z,16864
2016-05-13T06:03:30.809Z,16672
2016-05-13T06:04:30.828Z,16864
2016-05-13T06:05:30.706Z,17056
2016-05-13T06:06:30.755Z,16832
2016-05-13T06:07:30.930Z,16992
2016-05-13T06:08:30.652Z,17216
2016-05-13T06:09:30.826Z,17216
2016-05-13T06:10:31.000Z,17184
2016-05-13T06:11:30.877Z,17536
2016-05-13T06:12:31.068Z,17760
2016-05-13T06:13:31.086Z,17728
2016-05-13T06:14:31.105Z,17824
2016-05-13T06:15:31.138Z,18080
2016-05-13T06:16:32.454Z,17952
2016-05-13T06:17:31.207Z,17984
2016-05-13T06:18:31.225Z,18016
2016-05-13T06:19:31.103Z,18080
2016-05-13T06:20:31.277Z,17984
2016-05-13T06:21:31.312Z,18144
2016-05-13T06:22:31.346Z,18176
2016-05-13T06:23:31.379Z,18336
2016-05-13T06:24:31.398Z,18528
2016-05-13T06:25:31.431Z,18720
2016-05-13T06:26:31.450Z,19136
2016-05-13T06:27:31.484Z,19360
2016-05-13T06:28:31.502Z,19520
2016-05-13T06:29:31.379Z,19584
2016-05-13T06:30:31.570Z,19712
2016-05-13T06:31:31.463Z,19520
2016-05-13T06:32:31.623Z,19584
2016-05-13T06:33:31.656Z,19456
2016-05-13T06:34:31.674Z,19392
2016-05-13T06:35:31.692Z,19840
2016-05-13T06:36:31.742Z,20512
2016-05-13T06:37:31.760Z,20736
2016-05-13T06:38:31.811Z,21152
2016-05-13T06:39:31.500Z,21280
2016-05-13T06:40:31.846Z,21536
2016-05-13T06:41:31.568Z,21568
2016-05-13T06:42:31.744Z,21600
2016-05-13T06:43:31.932Z,21536
2016-05-13T06:44:31.810Z,21664
2016-05-13T06:45:31.985Z,21440
2016-05-13T06:46:32.035Z,21504
2016-05-13T06:47:31.788Z,21504
2016-05-13T06:48:31.915Z,21728
2016-05-13T06:49:31.793Z,21600
2016-05-13T06:50:32.201Z,21248
2016-05-13T06:51:32.173Z,21152
2016-05-13T06:52:32.191Z,20896
2016-05-13T06:53:32.240Z,21056
2016-05-13T06:54:32.243Z,21120
2016-05-13T06:55:32.278Z,21248
2016-05-13T06:56:32.156Z,21472
2016-05-13T06:57:32.190Z,21984
2016-05-13T06:58:32.364Z,21920
2016-05-13T06:59:32.225Z,21952
2016-05-13T07:00:32.417Z,21440
2016-05-13T07:01:32.466Z,21120
2016-05-13T07:02:32.953Z,19648
2016-05-13T07:03:32.503Z,19744
2016-05-13T07:04:32.567Z,19968
2016-05-13T07:05:32.586Z,20480
2016-05-13T07:06:32.604Z,20992
2016-05-13T07:07:32.653Z,20928
2016-05-13T07:08:32.719Z,21248
2016-05-13T07:09:32.549Z,21248
2016-05-13T07:10:32.709Z,21344
2016-05-13T07:11:32.758Z,21536
2016-05-13T07:12:32.776Z,21696
2016-05-13T07:13:32.811Z,21696
2016-05-13T07:14:32.672Z,22112
2016-05-13T07:15:32.863Z,22560
2016-05-13T07:16:32.897Z,22752
2016-05-13T07:17:32.790Z,22912
2016-05-13T07:18:32.964Z,22944
2016-05-13T07:19:32.999Z,23232
2016-05-13T07:20:32.876Z,23104
2016-05-13T07:21:33.051Z,23456
2016-05-13T07:22:33.085Z,23424
2016-05-13T07:23:33.119Z,23488
2016-05-13T07:24:32.824Z,23584
2016-05-13T07:25:33.154Z,23712
2016-05-13T07:26:33.252Z,23552
2016-05-13T07:27:32.910Z,23424
2016-05-13T07:28:33.257Z,23328
2016-05-13T07:29:33.276Z,23456
2016-05-13T07:30:33.309Z,23776
2016-05-13T07:31:33.343Z,23584
2016-05-13T07:32:34.487Z,23232
2016-05-13T07:33:33.317Z,23168
2016-05-13T07:34:33.476Z,23360
2016-05-13T07:35:33.478Z,23200
2016-05-13T07:36:33.497Z,23264
2016-05-13T07:37:33.375Z,22816
2016-05-13T07:38:33.394Z,22624
2016-05-13T07:39:33.427Z,22816
2016-05-13T07:40:33.633Z,22464
2016-05-13T07:41:33.652Z,22336
2016-05-13T07:42:33.686Z,22528
2016-05-13T07:43:33.548Z,22080
2016-05-13T07:44:33.738Z,21760
2016-05-13T07:45:33.771Z,21536
2016-05-13T07:46:33.649Z,21152
2016-05-13T07:47:34.261Z,21024
2016-05-13T07:48:33.874Z,20768
2016-05-13T07:49:33.892Z,20352
2016-05-13T07:50:33.910Z,20032
2016-05-13T07:51:33.804Z,19744
2016-05-13T07:52:33.978Z,19136
2016-05-13T07:53:34.012Z,17920
2016-05-13T07:54:34.062Z,18144
2016-05-13T07:55:33.923Z,18912
2016-05-13T07:56:33.957Z,18912
2016-05-13T07:57:33.991Z,18432
2016-05-13T07:58:34.010Z,18080
2016-05-13T07:59:34.262Z,17536
2016-05-13T08:00:34.234Z,17280
2016-05-13T08:01:34.143Z,17344
2016-05-13T08:02:34.286Z,16900
2016-05-13T08:03:34.320Z,16868
2016-05-13T08:04:34.697Z,16624
2016-05-13T08:05:34.888Z,16536
2016-05-13T08:06:34.406Z,16336
2016-05-13T08:07:34.425Z,16108
2016-05-13T08:08:34.459Z,15884
2016-05-13T08:09:34.337Z,15488
2016-05-13T08:10:34.511Z,14064
2016-05-13T08:11:34.388Z,9344
2016-05-13T08:12:34.594Z,5304
2016-05-13T08:13:34.597Z,4808
2016-05-13T08:14:34.475Z,4712
2016-05-13T08:15:34.525Z,4664
2016-05-13T08:16:34.542Z,4644
2016-05-13T08:17:34.733Z,4636
2016-05-13T08:18:34.767Z,4628
2016-05-13T08:19:34.800Z,4636
2016-05-13T08:20:34.835Z,4624
2016-05-13T08:21:34.852Z,4624
2016-05-13T08:22:34.872Z,4632
2016-05-13T08:23:34.780Z,4624
2016-05-13T08:24:34.938Z,4628
2016-05-13T08:25:34.958Z,4632
2016-05-13T08:26:35.007Z,4640
2016-05-13T08:27:35.041Z,4672
2016-05-13T08:28:34.903Z,4724
2016-05-13T08:29:35.093Z,4788
2016-05-13T08:30:35.112Z,4864
2016-05-13T08:31:34.832Z,4940
2016-05-13T08:32:35.195Z,4988
2016-05-13T08:33:35.213Z,5024
2016-05-13T08:34:35.075Z,5000
2016-05-13T08:35:35.281Z,4924
2016-05-13T08:36:35.300Z,4812
2016-05-13T08:37:35.334Z,4708
2016-05-13T08:38:35.368Z,4616
2016-05-13T08:39:35.386Z,4548
2016-05-13T08:40:35.420Z,4444
2016-05-13T08:41:35.438Z,4360
2016-05-13T08:42:35.316Z,4224
2016-05-13T08:43:35.506Z,4280
2016-05-13T08:44:35.555Z,4280
2016-05-13T08:45:35.558Z,4264
2016-05-13T08:46:35.592Z,4224
2016-05-13T08:47:36.158Z,4188
2016-05-13T08:48:35.503Z,4184
2016-05-13T08:49:35.522Z,4188
2016-05-13T08:50:35.712Z,4184
2016-05-13T08:51:35.746Z,4144
2016-05-13T08:52:35.608Z,4152
2016-05-13T08:53:35.674Z,4132
2016-05-13T08:54:35.832Z,4100
2016-05-13T08:55:35.866Z,4100
2016-05-13T08:56:35.885Z,4076
2016-05-13T08:57:35.918Z,4052
2016-05-13T08:58:35.937Z,4024
2016-05-13T08:59:35.971Z,3984
2016-05-13T09:00:35.833Z,3936
2016-05-13T09:01:36.038Z,3904
2016-05-13T09:02:36.495Z,3892
2016-05-13T09:03:35.934Z,3884
2016-05-13T09:04:35.953Z,3880
2016-05-13T09:05:35.987Z,3884
2016-05-13T09:06:36.051Z,3872
2016-05-13T09:07:36.211Z,3844
2016-05-13T09:08:36.229Z,3804
2016-05-13T09:09:36.248Z,3796
2016-05-13T09:10:36.297Z,3772
2016-05-13T09:11:36.331Z,3760
2016-05-13T09:12:39.209Z,3776
2016-05-13T09:13:36.243Z,3764
2016-05-13T09:14:36.245Z,3736
2016-05-13T09:15:36.436Z,3708
2016-05-13T09:16:36.313Z,3676
2016-05-13T09:17:36.535Z,3640
2016-05-13T09:18:36.381Z,3624
2016-05-13T09:19:36.556Z,3600
2016-05-13T09:20:36.277Z,3576
2016-05-13T09:21:36.608Z,3536
2016-05-13T09:22:36.642Z,3536
2016-05-13T09:23:36.676Z,3532
2016-05-13T09:24:36.694Z,3508
2016-05-13T09:25:36.416Z,3500
2016-05-13T09:26:36.606Z,3476
2016-05-13T09:27:36.780Z,3468
2016-05-13T09:28:36.830Z,3440
2016-05-13T09:29:36.692Z,3412
2016-05-13T09:30:36.866Z,3412
2016-05-13T09:31:36.901Z,3396
2016-05-13T09:32:37.279Z,3388
2016-05-13T09:33:36.812Z,3384
2016-05-13T09:34:36.987Z,3372
2016-05-13T09:35:37.021Z,3344
2016-05-13T09:36:37.039Z,3328
2016-05-13T09:37:36.979Z,3316
2016-05-13T09:38:36.950Z,3304
2016-05-13T09:39:37.141Z,3304
2016-05-13T09:40:37.159Z,3288
2016-05-13T09:41:37.193Z,3276
2016-05-13T09:42:37.523Z,3240
2016-05-13T09:43:37.495Z,3220
2016-05-13T09:44:37.295Z,3224
2016-05-13T09:45:37.313Z,3224
2016-05-13T09:46:37.347Z,3220
2016-05-13T09:47:37.834Z,3224
2016-05-13T09:48:37.352Z,3196
2016-05-13T09:49:37.902Z,3172
2016-05-13T09:50:37.467Z,3164
2016-05-13T09:51:37.485Z,3156
2016-05-13T09:52:37.504Z,3140
2016-05-13T09:53:37.538Z,3120
2016-05-13T09:54:37.415Z,3104
2016-05-13T09:55:37.605Z,3088
2016-05-13T09:56:37.483Z,3072
2016-05-13T09:57:37.501Z,3068
2016-05-13T09:58:37.552Z,3060
2016-05-13T09:59:37.710Z,3056
2016-05-13T10:00:37.744Z,3052
2016-05-13T10:01:37.778Z,3044
2016-05-13T10:02:37.874Z,3032
2016-05-13T10:03:37.815Z,3016
2016-05-13T10:04:37.864Z,3012
2016-05-13T10:05:37.882Z,2996
2016-05-13T10:06:37.917Z,2968
2016-05-13T10:07:37.969Z,2956
2016-05-13T10:08:38.030Z,2928
2016-05-13T10:09:38.122Z,2912
2016-05-13T10:10:38.184Z,2916
2016-05-13T10:11:38.260Z,2900
2016-05-13T10:12:38.169Z,2888
2016-05-13T10:13:38.203Z,2880
2016-05-13T10:14:38.393Z,2876
2016-05-13T10:15:38.441Z,2876
2016-05-13T10:16:38.491Z,2872
2016-05-13T10:17:38.629Z,2868
2016-05-13T10:18:38.559Z,2860
2016-05-13T10:19:38.426Z,2868
2016-05-13T10:20:38.638Z,2864
2016-05-13T10:21:38.661Z,2852
2016-05-13T10:22:38.684Z,2856
2016-05-13T10:23:38.719Z,2848
2016-05-13T10:24:38.740Z,2836
2016-05-13T10:25:38.792Z,2820
2016-05-13T10:26:38.812Z,2824
2016-05-13T10:27:38.706Z,2812
2016-05-13T10:28:38.725Z,2796
2016-05-13T10:29:38.900Z,2796
2016-05-13T10:30:38.778Z,2792
2016-05-13T10:31:38.970Z,2780
2016-05-13T10:32:39.380Z,2756
2016-05-13T10:33:39.663Z,2720
2016-05-13T10:34:39.041Z,2712
2016-05-13T10:35:38.936Z,2704
2016-05-13T10:36:39.142Z,2716
2016-05-13T10:37:39.144Z,2732
2016-05-13T10:38:39.163Z,2732
2016-05-13T10:39:38.916Z,2716
2016-05-13T10:40:39.231Z,2700
2016-05-13T10:41:39.093Z,2680
2016-05-13T10:42:39.283Z,2672
2016-05-13T10:43:39.302Z,2692
2016-05-13T10:44:41.476Z,2664
2016-05-13T10:45:39.369Z,2628
2016-05-13T10:46:39.090Z,2608
2016-05-13T10:47:39.749Z,2584
2016-05-13T10:48:39.815Z,2592
2016-05-13T10:49:39.333Z,2596
2016-05-13T10:50:39.805Z,2580
2016-05-13T10:51:39.542Z,2572
2016-05-13T10:52:39.576Z,2572
2016-05-13T10:53:39.437Z,2580
2016-05-13T10:54:39.471Z,2576
2016-05-13T10:55:39.662Z,2564
2016-05-13T10:56:39.664Z,2564
2016-05-13T10:57:39.730Z,2572
2016-05-13T10:58:39.732Z,2572
2016-05-13T10:59:39.469Z,2560
2016-05-13T11:00:40.081Z,2564
2016-05-13T11:01:39.678Z,2592
2016-05-13T11:02:39.759Z,2604
2016-05-13T11:03:39.917Z,2588
2016-05-13T11:04:39.748Z,2588
2016-05-13T11:05:39.798Z,2600
2016-05-13T11:06:39.956Z,2620
2016-05-13T11:07:40.006Z,2600
2016-05-13T11:08:40.025Z,2568
2016-05-13T11:09:40.059Z,2540
2016-05-13T11:10:39.936Z,2536
2016-05-13T11:11:40.111Z,2512
2016-05-13T11:12:39.973Z,2552
2016-05-13T11:13:40.147Z,2556
2016-05-13T11:14:40.041Z,2560
2016-05-13T11:15:40.059Z,2548
2016-05-13T11:16:40.265Z,2592
2016-05-13T11:17:40.877Z,2584
2016-05-13T11:18:40.208Z,2576
2016-05-13T11:19:40.351Z,2568
2016-05-13T11:20:40.213Z,2556
2016-05-13T11:21:40.388Z,2248
2016-05-13T11:22:40.422Z,2008
2016-05-13T11:23:40.315Z,2636
2016-05-13T11:24:40.474Z,2636
2016-05-13T11:25:40.337Z,2628
2016-05-13T11:26:40.526Z,2616
2016-05-13T11:27:42.498Z,2632
2016-05-13T11:28:40.595Z,2660
2016-05-13T11:29:40.612Z,2688
2016-05-13T11:30:40.646Z,2704
2016-05-13T11:31:40.509Z,2744
2016-05-13T11:32:40.558Z,2732
2016-05-13T11:33:40.826Z,2632
2016-05-13T11:34:40.767Z,2604
2016-05-13T11:35:40.800Z,2656
2016-05-13T11:36:40.522Z,2660
2016-05-13T11:37:40.681Z,2624
2016-05-13T11:38:40.872Z,2732
2016-05-13T11:39:40.905Z,2732
2016-05-13T11:40:40.923Z,2748
2016-05-13T11:41:40.816Z,2772
2016-05-13T11:42:40.835Z,2772
2016-05-13T11:43:40.853Z,2748
2016-05-13T11:44:40.887Z,2744
2016-05-13T11:45:40.921Z,2720
2016-05-13T11:46:41.111Z,2708
2016-05-13T11:47:41.161Z,2696
2016-05-13T11:48:41.164Z,2684
2016-05-13T11:49:41.183Z,2660
2016-05-13T11:50:41.216Z,2668
2016-05-13T11:51:41.234Z,2680
2016-05-13T11:52:40.971Z,2636
2016-05-13T11:53:41.302Z,2720
2016-05-13T11:54:41.180Z,2780
2016-05-13T11:55:41.213Z,2712
2016-05-13T11:56:41.388Z,2588
2016-05-13T11:57:41.251Z,2540
2016-05-13T11:58:41.440Z,2564
2016-05-13T11:59:41.459Z,2604
2016-05-13T12:00:41.351Z,2608
2016-05-13T12:01:41.527Z,2536
2016-05-13T12:02:41.576Z,2520
2016-05-13T12:03:41.439Z,2548
2016-05-13T12:04:41.613Z,2592
2016-05-13T12:05:41.475Z,2724
2016-05-13T12:06:41.697Z,2856
2016-05-13T12:08:01.918Z,2988
2016-05-13T12:08:41.733Z,3036
2016-05-13T12:09:41.595Z,3000
2016-05-13T12:10:41.770Z,2924
2016-05-13T12:11:41.803Z,2720
2016-05-13T12:12:41.838Z,2472
2016-05-13T12:13:41.855Z,2368
2016-05-13T12:14:41.889Z,2308
2016-05-13T12:15:41.924Z,1716
2016-05-13T12:16:41.958Z,1896
2016-05-13T12:17:43.132Z,2204
2016-05-13T12:18:42.010Z,2488
2016-05-13T12:19:41.885Z,2492
2016-05-13T12:20:42.060Z,2468
2016-05-13T12:21:42.094Z,2248
2016-05-13T12:22:41.971Z,2544
2016-05-13T12:23:42.146Z,2616
2016-05-13T12:24:42.179Z,2632
2016-05-13T12:25:42.214Z,2664
2016-05-13T12:26:42.091Z,2692
2016-05-13T12:27:42.110Z,2724
2016-05-13T12:28:42.300Z,2844
2016-05-13T12:29:42.318Z,2852
2016-05-13T12:30:42.337Z,2888
2016-05-13T12:31:42.215Z,2948
2016-05-13T12:32:43.310Z,2940
2016-05-13T12:33:42.438Z,2900
2016-05-13T12:34:42.457Z,2884
2016-05-13T12:35:42.490Z,2916
2016-05-13T12:36:42.540Z,2976
2016-05-13T12:37:42.559Z,3120
2016-05-13T12:38:42.576Z,3264
2016-05-13T12:39:42.471Z,3380
2016-05-13T12:40:42.645Z,3508
2016-05-13T12:41:42.647Z,3600
2016-05-13T12:42:42.682Z,3720
2016-05-13T12:43:42.715Z,2952
2016-05-13T12:44:42.750Z,3720
2016-05-13T12:45:42.768Z,3444
2016-05-13T12:46:42.802Z,3256
2016-05-13T12:47:42.898Z,3140
2016-05-13T12:48:42.541Z,3024
2016-05-13T12:49:42.888Z,3008
2016-05-13T12:50:42.766Z,3028
2016-05-13T12:51:42.940Z,3024
2016-05-13T12:52:42.818Z,3020
2016-05-13T12:53:43.008Z,2992
2016-05-13T12:54:42.713Z,2968
2016-05-13T12:55:42.904Z,2916
2016-05-13T12:56:43.078Z,2976
2016-05-13T12:57:43.112Z,2996
2016-05-13T12:58:43.146Z,2984
2016-05-13T12:59:43.165Z,2908
2016-05-13T13:00:43.198Z,2896
2016-05-13T13:01:43.232Z,2488
2016-05-13T13:02:43.470Z,3084
2016-05-13T13:03:43.129Z,3188
2016-05-13T13:04:43.318Z,3252
2016-05-13T13:05:43.353Z,3192
2016-05-13T13:06:43.387Z,3044
2016-05-13T13:07:43.390Z,2956
2016-05-13T13:08:43.423Z,2896
2016-05-13T13:09:43.317Z,2060
2016-05-13T13:10:43.492Z,1952
2016-05-13T13:11:43.509Z,2776
2016-05-13T13:12:43.387Z,2736
2016-05-13T13:13:43.405Z,2688
2016-05-13T13:14:43.595Z,2684
2016-05-13T13:15:43.630Z,2668
2016-05-13T13:16:43.648Z,2644
2016-05-13T13:17:44.416Z,2612
2016-05-13T13:18:43.575Z,2600
2016-05-13T13:19:43.577Z,2640
2016-05-13T13:20:43.768Z,2728
2016-05-13T13:21:43.647Z,2812
2016-05-13T13:22:43.836Z,2892
2016-05-13T13:23:43.697Z,2952
2016-05-13T13:24:43.888Z,3008
2016-05-13T13:25:43.906Z,3136
2016-05-13T13:26:43.941Z,3124
2016-05-13T13:27:43.975Z,2984
2016-05-13T13:28:43.868Z,2836
2016-05-13T13:29:44.026Z,2688
2016-05-13T13:30:43.889Z,2676
2016-05-13T13:31:43.923Z,2704
2016-05-13T13:32:43.971Z,2700
2016-05-13T13:33:44.272Z,2712
2016-05-13T13:34:44.009Z,2724
2016-05-13T13:35:44.199Z,2684
2016-05-13T13:36:44.217Z,2640
2016-05-13T13:37:44.251Z,2652